Time,TemperatureF,DewpointF,PressureIn,WindDirection,WindDirectionDegrees,WindSpeedMPH,WindSpeedGustMPH,Humidity,HourlyPrecipIn,Conditions,Clouds,dailyrainin,SoftwareType,DateUTC
2013-04-15 00:03:00,42.0,39.0,-100.00,East,90,10.0,14.0,86,0.00,,,-99.99,,2013-04-15 04:03:00,
2013-04-15 00:13:00,42.0,39.0,-100.00,East,95,10.0,14.0,87,0.00,,,-99.99,,2013-04-15 04:13:00,
2013-04-15 00:23:00,42.0,38.0,-100.00,East,95,11.0,14.0,87,0.00,,,-99.99,,2013-04-15 04:23:00,
2013-04-15 00:33:00,42.0,39.0,-100.00,East,95,9.0,13.0,89,0.00,,,-99.99,,2013-04-15 04:33:00,
2013-04-15 00:43:00,41.0,39.0,-100.00,ESE,105,9.0,12.0,92,0.00,,,-99.99,,2013-04-15 04:43:00,
2013-04-15 00:52:00,41.0,40.0,-100.00,East,100,9.0,12.0,97,0.00,,,-99.99,,2013-04-15 04:52:00,
2013-04-15 01:03:00,40.0,-99.9,-100.00,East,100,8.0,11.0,-999,0.00,,,-99.99,,2013-04-15 05:03:00,
2013-04-15 01:13:00,40.0,-99.9,-100.00,ESE,105,9.0,11.0,-999,0.00,,,-99.99,,2013-04-15 05:13:00,
2013-04-15 01:23:00,40.0,-99.9,-100.00,East,100,9.0,12.0,-999,0.00,,,-99.99,,2013-04-15 05:23:00,
2013-04-15 01:33:00,40.0,-99.9,-100.00,East,100,9.0,13.0,-999,0.00,,,-99.99,,2013-04-15 05:33:00,
2013-04-15 01:43:00,40.0,-99.9,-100.00,East,100,9.0,12.0,-999,0.00,,,-99.99,,2013-04-15 05:43:00,
2013-04-15 01:53:00,40.0,-99.9,-100.00,East,100,9.0,11.0,-999,0.00,,,-99.99,,2013-04-15 05:53:00,
2013-04-15 02:02:00,40.0,-99.9,-100.00,ESE,105,9.0,11.0,-999,0.00,,,-99.99,,2013-04-15 06:02:00,
2013-04-15 02:12:00,40.0,-99.9,-100.00,East,100,7.0,10.0,-999,0.00,,,-99.99,,2013-04-15 06:12:00,
2013-04-15 02:23:00,40.0,-99.9,-100.00,ESE,105,8.0,9.0,-999,0.00,,,-99.99,,2013-04-15 06:23:00,
2013-04-15 02:34:00,40.0,-99.9,-100.00,East,100,9.0,9.0,-999,0.00,,,-99.99,,2013-04-15 06:34:00,
2013-04-15 02:43:00,39.0,-99.9,-100.00,East,100,8.0,9.0,-999,0.00,,,-99.99,,2013-04-15 06:43:00,
2013-04-15 02:53:00,40.0,-99.9,-100.00,East,95,7.0,9.0,-999,0.00,,,-99.99,,2013-04-15 06:53:00,
2013-04-15 03:03:00,40.0,-99.9,-100.00,East,95,6.0,8.0,-999,0.00,,,-99.99,,2013-04-15 07:03:00,
2013-04-15 03:42:00,39.0,-99.9,-100.00,East,100,6.0,7.0,-999,0.00,,,-99.99,,2013-04-15 07:42:00,
2013-04-15 03:54:00,40.0,-99.9,-100.00,East,90,6.0,9.0,-999,0.00,,,-99.99,,2013-04-15 07:54:00,
2013-04-15 04:03:00,40.0,-99.9,-100.00,East,90,6.0,7.0,-999,0.00,,,-99.99,,2013-04-15 08:03:00,
2013-04-15 04:14:00,40.0,-99.9,-100.00,East,100,5.0,7.0,-999,0.00,,,-99.99,,2013-04-15 08:14:00,
2013-04-15 04:23:00,40.0,-99.9,-100.00,East,90,4.0,6.0,-999,0.00,,,-99.99,,2013-04-15 08:23:00,
2013-04-15 04:35:00,40.0,-99.9,-100.00,East,90,2.0,4.0,-999,0.00,,,-99.99,,2013-04-15 08:35:00,
2013-04-15 04:43:00,40.0,-99.9,-100.00,East,90,2.0,4.0,-999,0.00,,,-99.99,,2013-04-15 08:43:00,
2013-04-15 04:52:00,40.0,-99.9,-100.00,ENE,75,2.0,3.0,-999,0.00,,,-99.99,,2013-04-15 08:52:00,
2013-04-15 05:03:00,39.0,-99.9,-100.00,ENE,75,1.0,2.0,-999,0.00,,,-99.99,,2013-04-15 09:03:00,
2013-04-15 05:13:00,40.0,-99.9,-100.00,ENE,70,1.0,2.0,-999,0.00,,,-99.99,,2013-04-15 09:13:00,
2013-04-15 05:23:00,40.0,-99.9,-100.00,East,95,0.0,2.0,-999,0.00,,,-99.99,,2013-04-15 09:23:00,
2013-04-15 05:33:00,40.0,-99.9,-100.00,ESE,105,1.0,2.0,-999,0.00,,,-99.99,,2013-04-15 09:33:00,
2013-04-15 05:43:00,41.0,-99.9,-100.00,ESE,115,2.0,4.0,-999,0.00,,,-99.99,,2013-04-15 09:43:00,
2013-04-15 05:53:00,40.0,-99.9,-100.00,ESE,120,3.0,4.0,-999,0.00,,,-99.99,,2013-04-15 09:53:00,
2013-04-15 06:03:00,41.0,-99.9,-100.00,SE,125,4.0,6.0,-999,0.00,,,-99.99,,2013-04-15 10:03:00,
2013-04-15 06:13:00,41.0,-99.9,-100.00,SE,125,5.0,6.0,-999,0.00,,,-99.99,,2013-04-15 10:13:00,
2013-04-15 06:23:00,40.0,-99.9,-100.00,ESE,115,3.0,5.0,-999,0.00,,,-99.99,,2013-04-15 10:23:00,
2013-04-15 06:33:00,41.0,-99.9,-100.00,SE,125,4.0,4.0,-999,0.00,,,-99.99,,2013-04-15 10:33:00,
2013-04-15 06:42:00,41.0,-99.9,-100.00,ESE,110,3.0,5.0,-999,0.00,,,-99.99,,2013-04-15 10:42:00,
2013-04-15 06:53:00,40.0,-99.9,-100.00,ESE,115,4.0,5.0,-999,0.00,,,-99.99,,2013-04-15 10:53:00,
2013-04-15 07:04:00,40.0,-99.9,-100.00,ESE,115,4.0,6.0,-999,0.00,,,-99.99,,2013-04-15 11:04:00,
2013-04-15 07:13:00,41.0,-99.9,-100.00,SE,125,4.0,6.0,-999,0.00,,,-99.99,,2013-04-15 11:13:00,
2013-04-15 07:23:00,41.0,-99.9,-100.00,ESE,120,4.0,6.0,-999,0.00,,,-99.99,,2013-04-15 11:23:00,
2013-04-15 07:33:00,42.0,-99.9,-100.00,SE,125,4.0,6.0,-999,0.00,,,-99.99,,2013-04-15 11:33:00,
2013-04-15 07:44:00,42.0,-99.9,-100.00,SE,130,6.0,8.0,-999,0.00,,,-99.99,,2013-04-15 11:44:00,
2013-04-15 07:54:00,43.0,-99.9,-100.00,SE,135,6.0,9.0,-999,0.00,,,-99.99,,2013-04-15 11:54:00,
2013-04-15 08:05:00,44.0,-99.9,-100.00,SE,135,6.0,8.0,-999,0.00,,,-99.99,,2013-04-15 12:05:00,
2013-04-15 08:15:00,45.0,-99.9,-100.00,SE,135,6.0,9.0,-999,0.00,,,-99.99,,2013-04-15 12:15:00,
2013-04-15 08:24:00,46.0,-99.9,-100.00,SE,140,6.0,7.0,-999,0.00,,,-99.99,,2013-04-15 12:24:00,
2013-04-15 08:34:00,48.0,45.0,-100.00,SE,140,7.0,9.0,89,0.00,,,-99.99,,2013-04-15 12:34:00,
2013-04-15 08:43:00,48.0,45.0,-100.00,SE,140,7.0,11.0,88,0.00,,,-99.99,,2013-04-15 12:43:00,
2013-04-15 08:53:00,50.0,46.0,-100.00,SSE,160,4.0,9.0,84,0.00,,,-99.99,,2013-04-15 12:53:00,
2013-04-15 09:04:00,51.0,46.0,-100.00,SSE,165,5.0,11.0,82,0.00,,,-99.99,,2013-04-15 13:04:00,
2013-04-15 09:13:00,50.0,47.0,-100.00,South,170,4.0,10.0,88,0.00,,,-99.99,,2013-04-15 13:13:00,
2013-04-15 09:23:00,51.0,48.0,-100.00,South,175,6.0,9.0,88,0.00,,,-99.99,,2013-04-15 13:23:00,
2013-04-15 09:34:00,53.0,49.0,-100.00,South,170,6.0,11.0,84,0.00,,,-99.99,,2013-04-15 13:34:00,
2013-04-15 09:43:00,55.0,49.0,-100.00,South,175,11.0,15.0,79,0.00,,,-99.99,,2013-04-15 13:43:00,
2013-04-15 09:53:00,55.0,49.0,-100.00,SSW,195,13.0,22.0,77,0.00,,,-99.99,,2013-04-15 13:53:00,
2013-04-15 10:05:00,56.0,48.0,-100.00,SSW,195,16.0,20.0,73,0.00,,,-99.99,,2013-04-15 14:05:00,
2013-04-15 10:13:00,57.0,48.0,-100.00,SSW,200,12.0,21.0,73,0.00,,,-99.99,,2013-04-15 14:13:00,
2013-04-15 10:22:00,58.0,50.0,-100.00,SSW,195,14.0,22.0,75,0.00,,,-99.99,,2013-04-15 14:22:00,
2013-04-15 10:33:00,59.0,49.0,-100.00,South,180,15.0,21.0,70,0.00,,,-99.99,,2013-04-15 14:33:00,
2013-04-15 10:44:00,60.0,50.0,-100.00,South,190,15.0,22.0,70,0.00,,,-99.99,,2013-04-15 14:44:00,
2013-04-15 10:54:00,61.0,50.0,-100.00,SSW,200,16.0,25.0,67,0.00,,,-99.99,,2013-04-15 14:54:00,
2013-04-15 11:04:00,62.0,51.0,-100.00,South,185,16.0,25.0,67,0.00,,,-99.99,,2013-04-15 15:04:00,
2013-04-15 11:13:00,62.0,51.0,-100.00,SSW,195,21.0,29.0,66,0.00,,,-99.99,,2013-04-15 15:13:00,
2013-04-15 11:24:00,62.0,51.0,-100.00,South,190,18.0,27.0,65,0.00,,,-99.99,,2013-04-15 15:24:00,
2013-04-15 11:35:00,63.0,51.0,-100.00,SSW,210,16.0,24.0,64,0.00,,,-99.99,,2013-04-15 15:35:00,
2013-04-15 11:44:00,63.0,50.0,-100.00,SSW,200,17.0,25.0,64,0.00,,,-99.99,,2013-04-15 15:44:00,
2013-04-15 11:53:00,63.0,50.0,-100.00,SSW,205,17.0,22.0,62,0.00,,,-99.99,,2013-04-15 15:53:00,
2013-04-15 12:05:00,63.0,50.0,-100.00,SSW,205,16.0,22.0,63,0.00,,,-99.99,,2013-04-15 16:05:00,
2013-04-15 12:13:00,63.0,50.0,-100.00,SSW,205,15.0,23.0,62,0.00,,,-99.99,,2013-04-15 16:13:00,
2013-04-15 12:24:00,63.0,50.0,-100.00,SW,215,14.0,22.0,62,0.00,,,-99.99,,2013-04-15 16:24:00,
2013-04-15 12:34:00,64.0,50.0,-100.00,SSW,205,12.0,22.0,60,0.00,,,-99.99,,2013-04-15 16:34:00,
2013-04-15 12:44:00,65.0,52.0,-100.00,SSW,200,14.0,25.0,62,0.00,,,-99.99,,2013-04-15 16:44:00,
2013-04-15 12:53:00,65.0,51.0,-100.00,SW,225,13.0,29.0,60,0.00,,,-99.99,,2013-04-15 16:53:00,
2013-04-15 13:04:00,65.0,51.0,-100.00,SW,215,14.0,29.0,61,0.00,,,-99.99,,2013-04-15 17:04:00,
2013-04-15 13:15:00,66.0,51.0,-100.00,SSW,195,18.0,25.0,58,0.00,,,-99.99,,2013-04-15 17:15:00,
2013-04-15 13:22:00,65.0,49.0,-100.00,SW,215,21.0,25.0,57,0.00,,,-99.99,,2013-04-15 17:22:00,
2013-04-15 13:33:00,65.0,50.0,-100.00,SSW,205,17.0,29.0,57,0.00,,,-99.99,,2013-04-15 17:33:00,
2013-04-15 13:43:00,65.0,51.0,-100.00,South,190,21.0,25.0,59,0.00,,,-99.99,,2013-04-15 17:43:00,
2013-04-15 13:52:00,65.0,52.0,-100.00,SSW,195,19.0,24.0,61,0.00,,,-99.99,,2013-04-15 17:52:00,
2013-04-15 14:03:00,66.0,51.0,-100.00,South,190,19.0,25.0,59,0.00,,,-99.99,,2013-04-15 18:03:00,
2013-04-15 14:13:00,65.0,52.0,-100.00,South,190,18.0,26.0,62,0.00,,,-99.99,,2013-04-15 18:13:00,
2013-04-15 14:24:00,66.0,52.0,-100.00,South,185,21.0,27.0,59,0.00,,,-99.99,,2013-04-15 18:24:00,
2013-04-15 14:33:00,67.0,53.0,-100.00,SSW,195,19.0,31.0,60,0.00,,,-99.99,,2013-04-15 18:33:00,
2013-04-15 14:42:00,66.0,53.0,-100.00,SSW,195,19.0,27.0,62,0.00,,,-99.99,,2013-04-15 18:42:00,
2013-04-15 14:52:00,67.0,53.0,-100.00,South,190,19.0,29.0,61,0.00,,,-99.99,,2013-04-15 18:52:00,
2013-04-15 15:02:00,67.0,53.0,-100.00,SSW,200,17.0,25.0,60,0.00,,,-99.99,,2013-04-15 19:02:00,
2013-04-15 15:12:00,66.0,53.0,-100.00,SSW,200,14.0,26.0,62,0.00,,,-99.99,,2013-04-15 19:12:00,
2013-04-15 15:22:00,66.0,53.0,-100.00,South,190,15.0,24.0,62,0.00,,,-99.99,,2013-04-15 19:22:00,
2013-04-15 16:02:00,67.0,51.0,-100.00,South,190,20.0,24.0,58,0.00,,,-99.99,,2013-04-15 20:02:00,
2013-04-15 16:11:00,66.0,53.0,-100.00,SSW,205,12.0,25.0,61,0.00,,,-99.99,,2013-04-15 20:11:00,
2013-04-15 16:22:00,66.0,53.0,-100.00,SSW,200,12.0,22.0,62,0.00,,,-99.99,,2013-04-15 20:22:00,
2013-04-15 16:32:00,67.0,53.0,-100.00,South,175,18.0,22.0,61,0.00,,,-99.99,,2013-04-15 20:32:00,
2013-04-15 16:42:00,67.0,53.0,-100.00,South,185,19.0,29.0,60,0.00,,,-99.99,,2013-04-15 20:42:00,
2013-04-15 16:52:00,67.0,54.0,-100.00,South,180,16.0,25.0,62,0.00,,,-99.99,,2013-04-15 20:52:00,
2013-04-15 17:02:00,67.0,53.0,-100.00,South,180,15.0,25.0,60,0.00,,,-99.99,,2013-04-15 21:02:00,
2013-04-15 17:12:00,66.0,53.0,-100.00,South,190,26.0,34.0,62,0.00,,,-99.99,,2013-04-15 21:12:00,
2013-04-15 17:22:00,65.0,53.0,-100.00,South,190,22.0,30.0,62,0.00,,,-99.99,,2013-04-15 21:22:00,
2013-04-15 17:33:00,66.0,54.0,-100.00,South,190,17.0,25.0,64,0.00,,,-99.99,,2013-04-15 21:33:00,
2013-04-15 17:43:00,66.0,53.0,-100.00,SSW,195,20.0,32.0,63,0.00,,,-99.99,,2013-04-15 21:43:00,
2013-04-15 17:53:00,65.0,53.0,-100.00,SSW,200,16.0,33.0,64,0.00,,,-99.99,,2013-04-15 21:53:00,
2013-04-15 18:02:00,65.0,53.0,-100.00,SSW,200,20.0,29.0,65,0.00,,,-99.99,,2013-04-15 22:02:00,
2013-04-15 18:13:00,65.0,53.0,-100.00,SW,215,10.0,21.0,63,0.00,,,-99.99,,2013-04-15 22:13:00,
2013-04-15 18:23:00,65.0,53.0,-100.00,SW,215,11.0,16.0,62,0.00,,,-99.99,,2013-04-15 22:23:00,
2013-04-15 18:33:00,67.0,53.0,-100.00,SW,220,8.0,16.0,60,0.00,,,-99.99,,2013-04-15 22:33:00,
2013-04-15 18:42:00,66.0,53.0,-100.00,SSW,195,11.0,16.0,62,0.00,,,-99.99,,2013-04-15 22:42:00,
2013-04-15 18:52:00,66.0,52.0,-100.00,SW,215,14.0,20.0,59,0.00,,,-99.99,,2013-04-15 22:52:00,
2013-04-15 19:02:00,66.0,52.0,-100.00,SSW,200,11.0,20.0,60,0.00,,,-99.99,,2013-04-15 23:02:00,
2013-04-15 19:12:00,66.0,52.0,-100.00,SW,220,9.0,15.0,59,0.00,,,-99.99,,2013-04-15 23:12:00,
2013-04-15 19:22:00,66.0,52.0,-100.00,SW,215,11.0,16.0,61,0.00,,,-99.99,,2013-04-15 23:22:00,
2013-04-15 19:32:00,66.0,52.0,-100.00,SW,215,11.0,16.0,61,0.00,,,-99.99,,2013-04-15 23:32:00,
2013-04-15 19:42:00,65.0,53.0,-100.00,SW,230,5.0,9.0,64,0.00,,,-99.99,,2013-04-15 23:42:00,
2013-04-15 19:52:00,65.0,53.0,-100.00,SW,225,5.0,7.0,65,0.00,,,-99.99,,2013-04-15 23:52:00,
2013-04-15 20:02:00,64.0,53.0,-100.00,SW,225,6.0,8.0,66,0.00,,,-99.99,,2013-04-16 00:02:00,
2013-04-15 20:12:00,64.0,53.0,-100.00,SW,225,4.0,9.0,67,0.00,,,-99.99,,2013-04-16 00:12:00,
2013-04-15 20:22:00,64.0,53.0,-100.00,SW,225,3.0,6.0,67,0.00,,,-99.99,,2013-04-16 00:22:00,
2013-04-15 20:32:00,64.0,53.0,-100.00,SSW,205,2.0,4.0,68,0.00,,,-99.99,,2013-04-16 00:32:00,
2013-04-15 20:42:00,63.0,53.0,-100.00,SW,220,3.0,4.0,69,0.00,,,-99.99,,2013-04-16 00:42:00,
2013-04-15 20:52:00,63.0,53.0,-100.00,SW,215,1.0,4.0,69,0.00,,,-99.99,,2013-04-16 00:52:00,
2013-04-15 21:02:00,63.0,53.0,-100.00,SW,225,2.0,3.0,69,0.00,,,-99.99,,2013-04-16 01:02:00,
2013-04-15 21:12:00,62.0,53.0,-100.00,SSW,210,1.0,2.0,72,0.00,,,-99.99,,2013-04-16 01:12:00,
2013-04-15 21:22:00,62.0,53.0,-100.00,SW,225,2.0,4.0,72,0.00,,,-99.99,,2013-04-16 01:22:00,
2013-04-15 21:32:00,63.0,53.0,-100.00,SSW,210,2.0,5.0,71,0.00,,,-99.99,,2013-04-16 01:32:00,
2013-04-15 21:42:00,63.0,53.0,-100.00,SSW,205,2.0,6.0,71,0.00,,,-99.99,,2013-04-16 01:42:00,
2013-04-15 21:52:00,62.0,54.0,-100.00,SE,145,1.0,3.0,75,0.00,,,-99.99,,2013-04-16 01:52:00,
2013-04-15 22:02:00,61.0,53.0,-100.00,SE,145,1.0,2.0,75,0.00,,,-99.99,,2013-04-16 02:02:00,
2013-04-15 22:12:00,60.0,54.0,-100.00,SE,130,3.0,4.0,79,0.00,,,-99.99,,2013-04-16 02:12:00,
2013-04-15 22:22:00,60.0,54.0,-100.00,SE,140,4.0,6.0,80,0.00,,,-99.99,,2013-04-16 02:22:00,
2013-04-15 22:32:00,60.0,54.0,-100.00,SE,140,4.0,6.0,79,0.00,,,-99.99,,2013-04-16 02:32:00,
2013-04-15 22:42:00,60.0,54.0,-100.00,SE,135,4.0,6.0,79,0.00,,,-99.99,,2013-04-16 02:42:00,
2013-04-15 22:52:00,60.0,55.0,-100.00,SE,140,4.0,6.0,82,0.00,,,-99.99,,2013-04-16 02:52:00,
2013-04-15 23:02:00,60.0,55.0,-100.00,SE,135,4.0,7.0,85,0.00,,,-99.99,,2013-04-16 03:02:00,
2013-04-15 23:12:00,61.0,55.0,-100.00,SSE,160,4.0,7.0,80,0.00,,,-99.99,,2013-04-16 03:12:00,
2013-04-15 23:22:00,61.0,54.0,-100.00,SSE,160,4.0,10.0,78,0.00,,,-99.99,,2013-04-16 03:22:00,
2013-04-15 23:33:00,60.0,54.0,-100.00,SSE,155,6.0,9.0,79,0.00,,,-99.99,,2013-04-16 03:33:00,
2013-04-15 23:43:00,60.0,54.0,-100.00,SSE,165,6.0,10.0,79,0.00,,,-99.99,,2013-04-16 03:43:00,
2013-04-15 23:52:00,60.0,53.0,-100.00,SE,145,11.0,16.0,78,0.00,,,-99.99,,2013-04-16 03:52:00,